createdAt,value
2022-09-05T00:02:04.148Z,15.02
2022-09-05T00:06:10.279Z,15.16
2022-09-05T00:10:36.111Z,15.25
2022-09-05T00:15:19.151Z,15.18
2022-09-05T00:24:19.723Z,15.04
2022-09-05T00:24:42.128Z,14.96
2022-09-05T00:29:03.298Z,14.88
2022-09-05T00:33:31.393Z,14.79
2022-09-05T00:37:38.361Z,14.66
2022-09-05T00:41:41.774Z,14.49
2022-09-05T00:45:49.961Z,14.52
2022-09-05T00:49:59.991Z,14.49
2022-09-05T00:54:02.146Z,14.37
2022-09-05T00:58:27.558Z,14.22
2022-09-05T01:02:52.082Z,14.11
2022-09-05T01:07:03.476Z,14.20
2022-09-05T01:11:28.131Z,14.27
2022-09-05T01:15:47.747Z,14.29
2022-09-05T01:20:19.141Z,14.37
2022-09-05T01:24:43.713Z,14.37
2022-09-05T01:29:17.208Z,14.32
2022-09-05T01:33:57.285Z,14.31
2022-09-05T01:38:10.637Z,14.23
2022-09-05T01:42:36.955Z,14.05
2022-09-05T01:47:30.951Z,13.89
2022-09-05T01:52:15.125Z,13.80
2022-09-05T01:56:34.177Z,13.79
2022-09-05T02:01:25.550Z,13.80
2022-09-05T02:06:01.393Z,13.62
2022-09-05T02:10:29.681Z,13.68
2022-09-05T02:14:45.746Z,13.66
2022-09-05T02:19:08.765Z,13.54
2022-09-05T02:23:32.660Z,13.46
2022-09-05T02:28:05.642Z,13.33
2022-09-05T02:32:21.135Z,13.21
2022-09-05T02:36:29.704Z,13.14
2022-09-05T02:45:03.838Z,13.19
2022-09-05T02:45:26.919Z,13.27
2022-09-05T02:52:50.473Z,13.31
2022-09-05T02:57:47.029Z,13.33
2022-09-05T02:59:08.501Z,13.34
2022-09-05T03:03:40.492Z,13.26
2022-09-05T03:08:07.681Z,13.13
2022-09-05T03:12:29.375Z,13.02
2022-09-05T03:16:53.486Z,12.87
2022-09-05T03:21:09.423Z,12.98
2022-09-05T03:25:49.640Z,13.14
2022-09-05T03:30:15.450Z,13.26
2022-09-05T03:34:51.476Z,13.35
2022-09-05T03:39:02.751Z,13.24
2022-09-05T03:43:30.864Z,13.14
2022-09-05T03:48:04.995Z,13.21
2022-09-05T03:57:05.553Z,13.21
2022-09-05T03:57:42.141Z,13.15
2022-09-05T04:05:02.552Z,13.07
2022-09-05T04:08:16.280Z,12.95
2022-09-05T04:11:05.818Z,13.04
2022-09-05T04:15:22.001Z,13.15
2022-09-05T04:19:35.118Z,13.16
2022-09-05T04:24:01.384Z,12.97
2022-09-05T04:28:22.017Z,13.04
2022-09-05T04:32:54.178Z,13.13
2022-09-05T04:37:06.497Z,13.08
2022-09-05T04:41:18.153Z,13.10
2022-09-05T04:45:24.393Z,13.16
2022-09-05T04:49:51.422Z,13.19
2022-09-05T04:54:27.613Z,13.03
2022-09-05T05:00:41.121Z,13.01
2022-09-05T05:06:08.909Z,13.20
2022-09-05T05:07:50.085Z,13.44
2022-09-05T05:18:03.432Z,13.56
2022-09-05T05:18:11.989Z,13.69
2022-09-05T05:21:24.125Z,13.83
2022-09-05T05:25:27.192Z,14.08
2022-09-05T05:29:37.515Z,14.06
2022-09-05T05:33:41.017Z,13.88
2022-09-05T05:37:47.727Z,13.96
2022-09-05T05:41:55.577Z,14.16
2022-09-05T05:45:59.631Z,14.36
2022-09-05T05:50:11.602Z,14.51
2022-09-05T05:54:29.525Z,14.71
2022-09-05T05:58:40.346Z,14.84
2022-09-05T06:03:26.594Z,15.00
2022-09-05T06:08:38.617Z,15.26
2022-09-05T06:15:05.202Z,18.06
2022-09-05T06:17:35.497Z,20.79
2022-09-05T06:22:14.958Z,24.24
2022-09-05T06:26:56.067Z,27.01
2022-09-05T06:31:29.060Z,28.90
2022-09-05T06:35:49.208Z,29.38
2022-09-05T06:40:28.070Z,26.58
2022-09-05T06:44:57.163Z,25.39
2022-09-05T06:49:33.514Z,27.57
2022-09-05T06:53:52.406Z,28.80
2022-09-05T06:58:07.177Z,26.36
2022-09-05T07:02:58.347Z,23.77
2022-09-05T07:07:06.491Z,22.21
2022-09-05T07:11:16.488Z,21.45
2022-09-05T07:15:33.661Z,21.12
2022-09-05T07:19:54.884Z,20.97
2022-09-05T07:24:09.926Z,20.86
2022-09-05T07:28:29.009Z,20.90
2022-09-05T07:32:42.680Z,21.00
2022-09-05T07:36:50.956Z,21.12
2022-09-05T07:41:29.372Z,21.21
2022-09-05T07:45:32.512Z,21.28
2022-09-05T07:49:39.951Z,21.37
2022-09-05T07:57:00.667Z,21.56
2022-09-05T07:58:51.662Z,21.76
2022-09-05T08:02:55.076Z,21.88
2022-09-05T08:07:48.972Z,22.04
2022-09-05T08:11:27.794Z,22.22
2022-09-05T08:15:38.336Z,22.42
2022-09-05T08:20:15.839Z,22.69
2022-09-05T08:24:26.764Z,22.89
2022-09-05T08:28:56.019Z,22.90
2022-09-05T08:33:10.197Z,22.93
2022-09-05T08:37:21.514Z,23.13
2022-09-05T08:41:43.214Z,23.53
2022-09-05T08:46:48.445Z,23.79
2022-09-05T08:50:37.913Z,23.80
2022-09-05T08:55:11.527Z,23.83
2022-09-05T08:59:31.484Z,23.88
2022-09-05T09:03:57.027Z,23.98
2022-09-05T09:08:15.851Z,24.05
2022-09-05T09:12:30.075Z,24.14
2022-09-05T09:16:44.608Z,24.25
2022-09-05T09:21:12.330Z,24.41
2022-09-05T09:25:17.828Z,24.50
2022-09-05T09:29:25.424Z,24.58
2022-09-05T09:34:01.120Z,24.94
2022-09-05T09:38:22.280Z,25.48
2022-09-05T09:42:47.426Z,25.88
2022-09-05T09:46:50.818Z,26.07
2022-09-05T09:51:27.789Z,26.22
2022-09-05T09:55:52.078Z,26.42
2022-09-05T10:00:12.428Z,26.44
2022-09-05T10:10:33.964Z,26.28
2022-09-05T10:10:54.225Z,26.24
2022-09-05T10:14:03.895Z,26.25
2022-09-05T10:18:39.263Z,26.25
2022-09-05T10:23:07.910Z,26.23
2022-09-05T10:27:32.693Z,26.29
2022-09-05T10:34:42.454Z,26.42
2022-09-05T10:36:17.570Z,26.20
2022-09-05T10:40:26.376Z,25.97
2022-09-05T10:44:40.403Z,26.02
2022-09-05T10:48:54.238Z,26.18
2022-09-05T10:53:07.392Z,26.54
2022-09-05T10:57:33.942Z,26.91
2022-09-05T11:02:29.617Z,27.07
2022-09-05T11:06:09.076Z,27.10
2022-09-05T11:10:17.943Z,27.10
2022-09-05T11:14:49.306Z,27.10
2022-09-05T11:18:58.066Z,27.08
2022-09-05T11:23:08.419Z,27.09
2022-09-05T11:27:24.899Z,27.18
2022-09-05T11:36:29.613Z,27.31
2022-09-05T11:40:00.588Z,27.39
2022-09-05T11:41:38.426Z,27.43
2022-09-05T11:46:08.609Z,27.42
2022-09-05T11:55:37.599Z,27.57
2022-09-05T12:00:31.708Z,27.60
2022-09-05T12:05:47.438Z,27.58
2022-09-05T12:09:39.782Z,27.67
2022-09-05T12:13:53.953Z,27.84
2022-09-05T12:18:22.042Z,28.00
2022-09-05T12:22:41.411Z,28.06
2022-09-05T12:27:42.036Z,28.16
2022-09-05T12:33:47.906Z,28.10
2022-09-05T12:40:51.933Z,27.96
2022-09-05T12:41:43.038Z,27.79
2022-09-05T12:45:13.973Z,27.96
2022-09-05T12:49:36.164Z,27.84
2022-09-05T12:53:55.366Z,27.60
2022-09-05T13:02:13.352Z,27.71
2022-09-05T13:03:01.406Z,27.87
2022-09-05T13:06:58.968Z,28.02
2022-09-05T13:14:49.122Z,28.12
2022-09-05T13:15:27.206Z,28.13
2022-09-05T13:19:34.454Z,28.21
2022-09-05T13:24:02.585Z,28.29
2022-09-05T13:28:07.123Z,28.40
2022-09-05T13:37:55.079Z,28.22
2022-09-05T13:38:12.951Z,27.88
2022-09-05T13:41:30.381Z,27.96
2022-09-05T13:45:39.385Z,28.16
2022-09-05T13:50:05.403Z,28.33
2022-09-05T13:54:29.277Z,28.42
2022-09-05T13:58:56.804Z,28.62
2022-09-05T14:03:40.809Z,28.80
2022-09-05T14:08:11.315Z,28.97
2022-09-05T14:13:00.865Z,29.13
2022-09-05T14:21:51.929Z,29.09
2022-09-05T14:26:00.047Z,29.11
2022-09-05T14:30:39.980Z,29.12
2022-09-05T14:37:48.383Z,29.12
2022-09-05T14:39:33.968Z,28.88
2022-09-05T14:43:38.759Z,28.62
2022-09-05T14:48:07.900Z,28.41
2022-09-05T14:52:23.392Z,28.24
2022-09-05T15:00:34.512Z,28.13
2022-09-05T15:02:49.441Z,28.25
2022-09-05T15:05:45.457Z,28.28
2022-09-05T15:12:16.943Z,28.20
2022-09-05T15:14:29.116Z,28.08
2022-09-05T15:18:37.424Z,28.01
2022-09-05T15:22:41.938Z,28.14
2022-09-05T15:26:54.112Z,28.20
2022-09-05T15:31:05.042Z,28.22
2022-09-05T15:35:07.944Z,28.27
2022-09-05T15:39:28.502Z,28.36
2022-09-05T15:43:30.844Z,28.39
2022-09-05T15:47:33.827Z,28.32
2022-09-05T15:51:43.704Z,28.28
2022-09-05T15:55:49.516Z,28.24
2022-09-05T16:00:00.217Z,28.06
2022-09-05T16:09:58.186Z,27.91
2022-09-05T16:10:47.281Z,27.73
2022-09-05T16:12:55.456Z,27.57
2022-09-05T16:23:15.645Z,27.46
2022-09-05T16:23:24.938Z,27.33
2022-09-05T16:25:58.343Z,27.22
2022-09-05T16:30:01.236Z,27.18
2022-09-05T16:34:10.398Z,27.18
2022-09-05T16:38:24.256Z,27.17
2022-09-05T16:43:02.220Z,27.15
2022-09-05T16:47:23.135Z,27.12
2022-09-05T16:51:42.752Z,27.05
2022-09-05T16:55:54.321Z,26.93
2022-09-05T16:59:57.174Z,26.83
2022-09-05T17:04:18.028Z,26.72
2022-09-05T17:08:29.643Z,26.60
2022-09-05T17:12:33.539Z,26.49
2022-09-05T17:16:48.961Z,26.42
2022-09-05T17:20:56.875Z,26.32
2022-09-05T17:29:19.655Z,26.20
2022-09-05T17:31:25.200Z,26.04
2022-09-05T17:34:54.599Z,25.87
2022-09-05T17:39:19.218Z,25.72
2022-09-05T17:43:28.451Z,25.57
2022-09-05T17:47:48.226Z,25.41
2022-09-05T17:51:52.991Z,25.23
2022-09-05T17:55:55.187Z,25.07
2022-09-05T18:00:21.898Z,24.90
2022-09-05T18:04:44.977Z,24.65
2022-09-05T18:08:47.964Z,24.46
2022-09-05T18:13:13.624Z,24.32
2022-09-05T18:17:41.466Z,24.13
2022-09-05T18:21:52.963Z,23.98
2022-09-05T18:26:09.251Z,23.76
2022-09-05T18:30:27.687Z,23.50
2022-09-05T18:34:31.390Z,23.27
2022-09-05T18:38:51.710Z,23.01
2022-09-05T18:42:54.581Z,22.75
2022-09-05T18:47:00.754Z,22.54
2022-09-05T18:51:13.001Z,22.32
2022-09-05T18:56:08.972Z,22.22
2022-09-05T18:59:52.950Z,22.16
2022-09-05T19:03:59.674Z,22.08
2022-09-05T19:08:12.428Z,21.95
2022-09-05T19:12:42.021Z,21.88
2022-09-05T19:16:49.911Z,21.81
2022-09-05T19:21:17.681Z,21.73
2022-09-05T19:25:34.414Z,21.66
2022-09-05T19:36:57.053Z,21.57
2022-09-05T19:37:12.706Z,21.40
2022-09-05T19:40:23.904Z,21.03
2022-09-05T19:47:35.530Z,20.91
2022-09-05T19:51:56.241Z,20.40
2022-09-05T19:56:03.469Z,20.29
2022-09-05T20:00:06.188Z,20.12
2022-09-05T20:04:18.525Z,20.04
2022-09-05T20:08:33.097Z,19.94
2022-09-05T20:12:38.437Z,19.93
2022-09-05T20:16:40.941Z,19.94
2022-09-05T20:20:58.580Z,19.78
2022-09-05T20:25:02.357Z,19.57
2022-09-05T20:29:09.131Z,19.42
2022-09-05T20:33:21.265Z,19.44
2022-09-05T20:43:09.844Z,19.44
2022-09-05T20:43:32.029Z,19.28
2022-09-05T20:49:44.851Z,19.07
2022-09-05T20:54:23.199Z,18.86
2022-09-05T20:55:09.258Z,18.81
2022-09-05T20:59:41.773Z,18.82
2022-09-05T21:03:59.120Z,18.65
2022-09-05T21:08:24.367Z,18.60
2022-09-05T21:12:30.118Z,18.50
2022-09-05T21:16:45.354Z,18.43
2022-09-05T21:20:55.872Z,18.43
2022-09-05T21:25:36.001Z,18.42
2022-09-05T21:29:50.974Z,18.46
2022-09-05T21:34:02.793Z,18.50
2022-09-05T21:38:12.663Z,18.55
2022-09-05T21:42:51.766Z,18.59
2022-09-05T21:47:38.389Z,18.50
2022-09-05T21:51:13.020Z,18.43
2022-09-05T21:59:16.118Z,18.44
2022-09-05T21:59:46.128Z,18.58
2022-09-05T22:03:49.182Z,18.67
2022-09-05T22:07:54.410Z,18.74
2022-09-05T22:11:56.541Z,18.62
2022-09-05T22:16:04.344Z,18.37
2022-09-05T22:20:08.748Z,18.19
2022-09-05T22:24:11.544Z,18.08
2022-09-05T22:28:19.152Z,18.07
2022-09-05T22:32:28.569Z,18.12
2022-09-05T22:36:37.400Z,18.01
2022-09-05T22:40:42.444Z,17.88
2022-09-05T22:44:44.513Z,17.83
2022-09-05T22:48:46.619Z,17.61
2022-09-05T22:52:48.820Z,17.42
2022-09-05T22:56:50.847Z,17.34
2022-09-05T23:00:53.166Z,17.40
2022-09-05T23:04:55.216Z,17.51
2022-09-05T23:08:57.265Z,17.55
2022-09-05T23:13:02.790Z,17.52
2022-09-05T23:17:04.907Z,17.34
2022-09-05T23:21:12.037Z,17.24
2022-09-05T23:25:14.520Z,17.27
2022-09-05T23:29:16.655Z,17.16
2022-09-05T23:33:18.712Z,17.12
2022-09-05T23:37:20.736Z,17.09
2022-09-05T23:41:22.746Z,17.15
2022-09-05T23:45:26.230Z,17.23
2022-09-05T23:49:28.285Z,17.13
2022-09-05T23:53:30.319Z,16.96
2022-09-05T23:57:32.420Z,16.89
